createdAt,value
2019-03-26T00:01:06.455Z,87.20
2019-03-26T00:03:34.731Z,87.13
2019-03-26T00:06:02.987Z,86.95
2019-03-26T00:08:31.268Z,86.98
2019-03-26T00:10:59.528Z,86.88
2019-03-26T00:13:27.805Z,87.00
2019-03-26T00:15:56.058Z,87.66
2019-03-26T00:18:25.659Z,87.59
2019-03-26T00:20:53.941Z,87.24
2019-03-26T00:23:22.195Z,87.50
2019-03-26T00:25:50.473Z,87.28
2019-03-26T00:28:18.726Z,87.88
2019-03-26T00:30:47.674Z,87.96
2019-03-26T00:33:17.272Z,87.83
2019-03-26T00:35:46.118Z,87.91
2019-03-26T00:38:14.375Z,88.19
2019-03-26T00:40:42.652Z,87.54
2019-03-26T00:43:10.909Z,87.74
2019-03-26T00:45:39.181Z,88.29
2019-03-26T00:48:08.209Z,88.33
2019-03-26T00:50:36.482Z,88.68
2019-03-26T00:53:04.742Z,89.22
2019-03-26T00:55:33.586Z,89.06
2019-03-26T00:58:01.981Z,88.70
2019-03-26T01:00:37.451Z,88.74
2019-03-26T01:03:05.975Z,88.67
2019-03-26T01:05:34.251Z,88.89
2019-03-26T01:08:03.847Z,89.14
2019-03-26T01:10:32.894Z,89.12
2019-03-26T01:13:01.924Z,88.83
2019-03-26T01:15:30.768Z,88.98
2019-03-26T01:17:59.025Z,89.09
2019-03-26T01:20:27.299Z,88.44
2019-03-26T01:22:55.554Z,88.74
2019-03-26T01:25:24.607Z,88.40
2019-03-26T01:27:52.863Z,88.47
2019-03-26T01:30:21.910Z,88.70
2019-03-26T01:32:50.934Z,88.36
2019-03-26T01:35:19.787Z,88.68
2019-03-26T01:37:48.044Z,88.96
2019-03-26T01:40:16.325Z,88.42
2019-03-26T01:42:45.141Z,88.27
2019-03-26T01:45:13.418Z,88.50
2019-03-26T01:47:41.678Z,88.50
2019-03-26T01:50:09.956Z,88.27
2019-03-26T01:52:38.778Z,87.80
2019-03-26T01:55:07.062Z,88.28
2019-03-26T01:57:36.158Z,88.59
2019-03-26T02:00:06.182Z,88.51
2019-03-26T02:02:34.437Z,88.37
2019-03-26T02:05:06.467Z,88.06
2019-03-26T02:07:34.711Z,87.67
2019-03-26T02:10:02.982Z,88.12
2019-03-26T02:12:31.233Z,88.35
2019-03-26T02:15:00.149Z,88.48
2019-03-26T02:17:28.599Z,88.09
2019-03-26T02:19:57.448Z,88.53
2019-03-26T02:22:25.699Z,87.93
2019-03-26T02:24:53.968Z,88.36
2019-03-26T02:27:22.223Z,88.28
2019-03-26T02:29:51.068Z,88.04
2019-03-26T02:32:19.318Z,87.72
2019-03-26T02:34:47.594Z,87.53
2019-03-26T02:37:15.840Z,87.43
2019-03-26T02:39:44.117Z,87.26
2019-03-26T02:42:12.365Z,87.14
2019-03-26T02:44:40.652Z,87.07
2019-03-26T02:47:08.901Z,87.12
2019-03-26T02:49:37.170Z,86.25
2019-03-26T02:52:06.294Z,86.52
2019-03-26T02:54:34.560Z,85.90
2019-03-26T02:57:03.143Z,86.36
2019-03-26T02:59:31.992Z,85.78
2019-03-26T03:02:00.244Z,85.46
2019-03-26T03:04:29.087Z,85.74
2019-03-26T03:06:57.332Z,85.74
2019-03-26T03:09:25.609Z,86.05
2019-03-26T03:11:53.865Z,85.44
2019-03-26T03:14:22.888Z,84.68
2019-03-26T03:16:51.174Z,85.40
2019-03-26T03:19:19.413Z,84.16
2019-03-26T03:21:48.273Z,84.16
2019-03-26T03:24:16.868Z,84.44
2019-03-26T03:26:45.142Z,83.26
2019-03-26T03:29:13.719Z,83.44
2019-03-26T03:31:42.001Z,83.27
2019-03-26T03:34:10.827Z,83.44
2019-03-26T03:36:39.673Z,83.57
2019-03-26T03:39:08.294Z,82.61
2019-03-26T03:41:36.570Z,82.75
2019-03-26T03:44:04.812Z,82.23
2019-03-26T03:46:33.083Z,81.63
2019-03-26T03:49:01.338Z,80.90
2019-03-26T03:51:29.616Z,81.83
2019-03-26T03:53:58.631Z,82.55
2019-03-26T03:56:27.176Z,81.94
2019-03-26T03:58:55.422Z,81.18
2019-03-26T04:01:23.691Z,81.14
2019-03-26T04:03:51.949Z,81.14
2019-03-26T04:06:20.214Z,81.23
2019-03-26T04:08:48.538Z,81.80
2019-03-26T04:11:16.805Z,81.63
2019-03-26T04:13:45.059Z,82.01
2019-03-26T04:16:13.337Z,82.04
2019-03-26T04:18:41.580Z,81.12
2019-03-26T04:21:09.857Z,81.46
2019-03-26T04:23:38.109Z,82.06
2019-03-26T04:26:06.458Z,81.82
2019-03-26T04:28:35.278Z,81.21
2019-03-26T04:31:04.332Z,81.17
2019-03-26T04:33:32.569Z,81.74
2019-03-26T04:36:00.841Z,82.36
2019-03-26T04:38:29.668Z,82.05
2019-03-26T04:40:57.938Z,81.66
2019-03-26T04:43:26.759Z,81.85
2019-03-26T04:45:55.038Z,82.77
2019-03-26T04:48:23.296Z,82.82
2019-03-26T04:50:52.337Z,83.17
2019-03-26T04:53:21.363Z,83.81
2019-03-26T04:55:49.635Z,83.85
2019-03-26T04:58:18.163Z,83.95
2019-03-26T05:00:46.434Z,84.05
2019-03-26T05:03:14.690Z,84.19
2019-03-26T05:05:43.535Z,83.42
2019-03-26T05:08:11.852Z,84.33
2019-03-26T05:10:40.100Z,82.97
2019-03-26T05:13:08.381Z,80.85
2019-03-26T05:15:36.625Z,81.24
2019-03-26T05:18:04.964Z,80.96
2019-03-26T05:20:33.212Z,79.22
2019-03-26T05:23:02.263Z,79.15
2019-03-26T05:25:30.510Z,78.94
2019-03-26T05:27:58.779Z,79.14
2019-03-26T05:30:27.029Z,77.79
2019-03-26T05:32:56.072Z,78.02
2019-03-26T05:35:24.319Z,77.76
2019-03-26T05:37:52.597Z,76.25
2019-03-26T05:40:20.853Z,77.27
2019-03-26T05:42:49.409Z,78.52
2019-03-26T05:45:17.656Z,76.65
2019-03-26T05:47:45.936Z,77.96
2019-03-26T05:50:14.184Z,77.18
2019-03-26T05:52:43.231Z,76.61
2019-03-26T05:55:11.483Z,76.91
2019-03-26T05:57:39.755Z,77.79
2019-03-26T06:00:10.417Z,78.74
2019-03-26T06:02:38.694Z,78.94
2019-03-26T06:05:07.412Z,79.50
2019-03-26T06:07:36.793Z,78.67
2019-03-26T06:10:07.540Z,79.49
2019-03-26T06:12:35.812Z,79.26
2019-03-26T06:15:11.094Z,79.53
2019-03-26T06:17:39.364Z,79.69
2019-03-26T06:20:08.292Z,79.10
2019-03-26T06:22:36.567Z,79.65
2019-03-26T06:25:06.350Z,78.97
2019-03-26T06:27:34.626Z,78.46
2019-03-26T06:30:02.878Z,78.65
2019-03-26T06:32:31.822Z,78.36
2019-03-26T06:35:00.325Z,78.58
2019-03-26T06:37:29.394Z,78.81
2019-03-26T06:39:58.543Z,78.46
2019-03-26T06:42:26.894Z,78.48
2019-03-26T06:44:55.916Z,78.36
2019-03-26T06:47:24.189Z,77.70
2019-03-26T06:49:52.440Z,77.88
2019-03-26T06:52:21.483Z,77.69
2019-03-26T06:54:51.655Z,77.64
2019-03-26T06:57:19.732Z,76.93
2019-03-26T06:59:47.980Z,78.61
2019-03-26T07:02:17.491Z,77.02
2019-03-26T07:04:48.821Z,75.06
2019-03-26T07:07:30.533Z,75.97
2019-03-26T07:09:47.067Z,74.48
2019-03-26T07:12:15.340Z,74.88
2019-03-26T07:14:43.592Z,75.45
2019-03-26T07:17:11.866Z,75.47
2019-03-26T07:19:40.688Z,72.90
2019-03-26T07:22:08.943Z,72.82
2019-03-26T07:24:37.224Z,72.83
2019-03-26T07:27:05.473Z,72.71
2019-03-26T07:29:33.753Z,73.82
2019-03-26T07:32:02.779Z,73.43
2019-03-26T07:34:31.049Z,73.25
2019-03-26T07:37:00.085Z,71.65
2019-03-26T07:39:28.357Z,73.03
2019-03-26T07:41:56.628Z,73.36
2019-03-26T07:44:24.879Z,74.16
2019-03-26T07:46:53.152Z,72.39
2019-03-26T07:49:21.409Z,71.51
2019-03-26T07:51:50.448Z,71.57
2019-03-26T07:54:18.702Z,74.34
2019-03-26T07:56:47.052Z,73.98
2019-03-26T07:59:16.073Z,74.76
2019-03-26T08:01:44.818Z,75.78
2019-03-26T08:04:13.089Z,75.96
2019-03-26T08:06:41.336Z,75.10
2019-03-26T08:09:09.978Z,75.96
2019-03-26T08:11:38.209Z,76.09
2019-03-26T08:14:07.049Z,77.30
2019-03-26T08:16:36.422Z,75.94
2019-03-26T08:19:04.681Z,77.44
2019-03-26T08:21:33.504Z,76.38
2019-03-26T08:24:01.778Z,75.65
2019-03-26T08:26:30.029Z,76.44
2019-03-26T08:29:00.887Z,76.31
2019-03-26T08:31:28.304Z,77.21
2019-03-26T08:33:56.552Z,76.82
2019-03-26T08:36:25.596Z,77.26
2019-03-26T08:38:53.843Z,75.80
2019-03-26T08:41:22.121Z,76.37
2019-03-26T08:43:50.369Z,77.39
2019-03-26T08:46:18.649Z,76.52
2019-03-26T08:48:46.890Z,74.63
2019-03-26T08:51:15.848Z,74.86
2019-03-26T08:53:44.735Z,75.00
2019-03-26T08:56:13.024Z,74.17
2019-03-26T08:58:41.276Z,73.58
2019-03-26T09:01:10.522Z,72.91
2019-03-26T09:03:39.540Z,71.85
2019-03-26T09:06:07.816Z,70.48
2019-03-26T09:08:38.592Z,73.94
2019-03-26T09:11:06.796Z,72.07
2019-03-26T09:13:35.618Z,71.63
2019-03-26T09:16:03.896Z,70.52
2019-03-26T09:18:32.150Z,70.59
2019-03-26T09:21:00.421Z,70.95
2019-03-26T09:23:28.673Z,70.64
2019-03-26T09:25:56.952Z,68.99
2019-03-26T09:28:25.209Z,69.96
2019-03-26T09:30:53.481Z,70.30
2019-03-26T09:33:22.304Z,72.53
2019-03-26T09:35:50.644Z,71.49
2019-03-26T09:38:18.893Z,71.52
2019-03-26T09:40:47.739Z,72.94
2019-03-26T09:43:16.257Z,72.86
2019-03-26T09:45:44.533Z,74.12
2019-03-26T09:48:13.120Z,73.63
2019-03-26T09:50:41.393Z,72.75
2019-03-26T09:53:09.646Z,72.17
2019-03-26T09:55:38.372Z,73.85
2019-03-26T09:58:06.642Z,72.87
2019-03-26T10:00:34.998Z,72.38
2019-03-26T10:03:03.340Z,72.18
2019-03-26T10:05:31.588Z,73.35
2019-03-26T10:07:59.865Z,73.10
2019-03-26T10:10:28.112Z,73.68
2019-03-26T10:12:56.389Z,75.25
2019-03-26T10:15:24.645Z,74.22
2019-03-26T10:17:52.992Z,72.95
2019-03-26T10:20:21.240Z,74.10
2019-03-26T10:22:49.510Z,73.44
2019-03-26T10:25:17.755Z,73.74
2019-03-26T10:27:46.601Z,73.06
2019-03-26T10:30:18.113Z,73.40
2019-03-26T10:32:46.954Z,72.99
2019-03-26T10:35:15.216Z,72.59
2019-03-26T10:37:43.484Z,72.05
2019-03-26T10:40:14.991Z,71.64
2019-03-26T10:42:43.621Z,73.77
2019-03-26T10:45:11.868Z,71.76
2019-03-26T10:47:40.142Z,73.23
2019-03-26T10:50:08.774Z,71.39
2019-03-26T10:52:37.037Z,71.84
2019-03-26T10:55:06.271Z,71.73
2019-03-26T10:57:34.876Z,71.26
2019-03-26T11:00:05.066Z,71.19
2019-03-26T11:02:33.337Z,70.01
2019-03-26T11:05:01.585Z,70.06
2019-03-26T11:07:30.437Z,71.68
2019-03-26T11:09:59.262Z,71.55
2019-03-26T11:12:27.538Z,70.90
2019-03-26T11:14:55.783Z,72.75
2019-03-26T11:17:24.831Z,70.90
2019-03-26T11:19:53.082Z,71.25
2019-03-26T11:22:21.361Z,72.52
2019-03-26T11:24:49.612Z,71.95
2019-03-26T11:27:17.885Z,71.85
2019-03-26T11:29:46.140Z,72.54
2019-03-26T11:32:14.415Z,73.59
2019-03-26T11:34:42.661Z,72.96
2019-03-26T11:37:10.928Z,72.68
2019-03-26T11:39:39.176Z,72.60
2019-03-26T11:42:07.435Z,73.82
2019-03-26T11:44:35.709Z,73.50
2019-03-26T11:47:03.956Z,73.27
2019-03-26T11:49:32.239Z,74.54
2019-03-26T11:52:00.471Z,75.32
2019-03-26T11:54:29.213Z,75.92
2019-03-26T11:56:57.470Z,76.61
2019-03-26T11:59:25.744Z,76.41
2019-03-26T12:01:54.000Z,77.91
2019-03-26T12:04:22.265Z,76.87
2019-03-26T12:06:50.511Z,76.18
2019-03-26T12:09:18.779Z,76.92
2019-03-26T12:11:47.022Z,76.42
2019-03-26T12:14:16.631Z,76.73
2019-03-26T12:16:44.956Z,76.39
2019-03-26T12:19:13.230Z,77.80
2019-03-26T12:21:41.476Z,76.80
2019-03-26T12:24:10.524Z,78.45
2019-03-26T12:26:38.766Z,78.48
2019-03-26T12:29:07.036Z,80.32
2019-03-26T12:31:35.279Z,81.44
2019-03-26T12:34:04.024Z,82.28
2019-03-26T12:36:39.754Z,83.03
2019-03-26T12:39:04.313Z,83.07
2019-03-26T12:41:33.336Z,82.68
2019-03-26T12:44:01.610Z,83.18
2019-03-26T12:46:29.861Z,83.42
2019-03-26T12:48:58.472Z,84.13
2019-03-26T12:51:26.716Z,84.12
2019-03-26T12:53:54.988Z,83.89
2019-03-26T12:56:23.239Z,83.97
2019-03-26T12:58:51.517Z,84.74
2019-03-26T13:01:20.534Z,84.75
2019-03-26T13:03:49.371Z,84.31
2019-03-26T13:06:17.618Z,84.26
2019-03-26T13:08:45.892Z,83.87
2019-03-26T13:11:17.112Z,85.17
2019-03-26T13:13:44.746Z,84.52
2019-03-26T13:16:13.728Z,84.74
2019-03-26T13:18:42.006Z,83.99
2019-03-26T13:21:10.247Z,84.82
2019-03-26T13:23:38.520Z,84.99
2019-03-26T13:26:07.344Z,85.82
2019-03-26T13:28:35.612Z,86.08
2019-03-26T13:31:04.437Z,86.30
2019-03-26T13:33:32.700Z,86.69
2019-03-26T13:36:00.948Z,86.90
2019-03-26T13:38:29.195Z,85.62
2019-03-26T13:40:57.475Z,85.79
2019-03-26T13:43:25.726Z,85.93
2019-03-26T13:45:54.000Z,86.40
2019-03-26T13:48:22.259Z,85.44
2019-03-26T13:50:50.534Z,84.95
2019-03-26T13:53:18.776Z,85.46
2019-03-26T13:55:47.522Z,86.53
2019-03-26T13:58:16.099Z,86.04
2019-03-26T14:00:44.356Z,86.85
2019-03-26T14:03:12.946Z,86.83
2019-03-26T14:05:41.213Z,86.24
2019-03-26T14:08:09.801Z,85.75
2019-03-26T14:10:41.317Z,86.10
2019-03-26T14:13:08.826Z,86.68
2019-03-26T14:15:37.098Z,87.04
2019-03-26T14:18:05.343Z,87.25
2019-03-26T14:20:33.610Z,88.27
2019-03-26T14:23:01.866Z,88.39
2019-03-26T14:25:30.154Z,87.84
2019-03-26T14:27:58.389Z,87.28
2019-03-26T14:30:37.499Z,88.11
2019-03-26T14:33:06.174Z,87.75
2019-03-26T14:35:34.442Z,87.40
2019-03-26T14:38:02.689Z,87.81
2019-03-26T14:40:30.964Z,87.63
2019-03-26T14:42:59.207Z,88.26
2019-03-26T14:45:28.048Z,88.29
2019-03-26T14:47:56.296Z,88.65
2019-03-26T14:50:24.568Z,87.98
2019-03-26T14:52:52.819Z,87.21
2019-03-26T14:55:21.075Z,87.57
2019-03-26T14:57:49.329Z,87.93
2019-03-26T15:00:17.605Z,86.56
2019-03-26T15:02:45.848Z,87.74
2019-03-26T15:05:14.129Z,87.49
2019-03-26T15:07:42.372Z,87.50
2019-03-26T15:10:10.714Z,88.59
2019-03-26T15:12:38.963Z,88.65
2019-03-26T15:15:07.240Z,88.10
2019-03-26T15:17:35.479Z,88.31
2019-03-26T15:20:06.359Z,87.81
2019-03-26T15:22:34.604Z,88.18
2019-03-26T15:25:03.020Z,88.27
2019-03-26T15:27:31.539Z,88.35
2019-03-26T15:29:59.820Z,88.53
2019-03-26T15:32:28.065Z,88.67
2019-03-26T15:34:56.340Z,88.63
2019-03-26T15:37:24.588Z,88.74
2019-03-26T15:39:52.865Z,88.58
2019-03-26T15:42:21.157Z,88.45
2019-03-26T15:44:49.357Z,88.63
2019-03-26T15:47:17.628Z,88.41
2019-03-26T15:49:46.790Z,88.65
2019-03-26T15:52:15.641Z,88.00
2019-03-26T15:54:43.889Z,88.57
2019-03-26T15:57:12.170Z,87.99
2019-03-26T15:59:40.416Z,88.43
2019-03-26T16:02:08.698Z,88.04
2019-03-26T16:04:37.622Z,88.59
2019-03-26T16:07:05.901Z,88.49
2019-03-26T16:09:34.725Z,88.20
2019-03-26T16:12:02.998Z,88.65
2019-03-26T16:14:31.251Z,88.59
2019-03-26T16:17:00.094Z,88.62
2019-03-26T16:19:32.711Z,88.46
2019-03-26T16:21:58.347Z,89.04
2019-03-26T16:24:26.589Z,88.71
2019-03-26T16:26:55.537Z,88.97
2019-03-26T16:29:26.047Z,89.09
2019-03-26T16:31:54.356Z,89.40
2019-03-26T16:34:22.599Z,89.31
2019-03-26T16:36:59.248Z,88.79
2019-03-26T16:39:21.615Z,88.95
2019-03-26T16:41:49.893Z,88.47
2019-03-26T16:44:18.711Z,88.50
2019-03-26T16:46:46.988Z,88.17
2019-03-26T16:49:16.303Z,87.82
2019-03-26T16:51:44.576Z,87.78
2019-03-26T16:54:12.827Z,87.68
2019-03-26T16:56:41.107Z,87.28
2019-03-26T16:59:09.352Z,87.70
2019-03-26T17:01:37.623Z,89.06
2019-03-26T17:04:05.869Z,88.57
2019-03-26T17:06:34.143Z,88.48
2019-03-26T17:09:02.662Z,88.40
2019-03-26T17:11:30.939Z,88.74
2019-03-26T17:13:59.188Z,88.54
2019-03-26T17:16:27.465Z,88.46
2019-03-26T17:18:56.042Z,88.50
2019-03-26T17:21:24.326Z,88.85
2019-03-26T17:23:52.581Z,88.75
2019-03-26T17:26:20.858Z,89.41
2019-03-26T17:28:49.105Z,89.64
2019-03-26T17:31:17.381Z,89.15
2019-03-26T17:33:46.484Z,89.53
2019-03-26T17:36:15.110Z,89.53
2019-03-26T17:38:43.930Z,89.31
2019-03-26T17:41:12.773Z,89.72
2019-03-26T17:43:42.360Z,89.59
2019-03-26T17:46:10.633Z,89.49
2019-03-26T17:48:38.886Z,89.84
2019-03-26T17:51:07.168Z,89.46
2019-03-26T17:53:35.417Z,89.19
2019-03-26T17:56:03.693Z,89.35
2019-03-26T17:58:31.945Z,89.34
2019-03-26T18:01:00.221Z,89.55
2019-03-26T18:03:28.472Z,89.56
2019-03-26T18:05:56.752Z,89.71
2019-03-26T18:08:25.003Z,89.15
2019-03-26T18:10:53.254Z,89.02
2019-03-26T18:13:21.527Z,88.87
2019-03-26T18:15:49.800Z,89.39
2019-03-26T18:18:18.081Z,89.14
2019-03-26T18:20:46.330Z,88.89
2019-03-26T18:23:15.388Z,88.76
2019-03-26T18:25:43.637Z,88.74
2019-03-26T18:28:11.913Z,88.88
2019-03-26T18:30:40.166Z,88.97
2019-03-26T18:33:08.441Z,89.18
2019-03-26T18:35:36.687Z,89.05
2019-03-26T18:38:05.733Z,89.01
2019-03-26T18:40:34.558Z,89.34
2019-03-26T18:43:02.833Z,89.38
2019-03-26T18:45:31.080Z,88.74
2019-03-26T18:47:59.353Z,89.33
2019-03-26T18:50:27.604Z,89.15
2019-03-26T18:52:55.876Z,88.85
2019-03-26T18:55:25.326Z,89.05
2019-03-26T18:57:53.789Z,88.75
2019-03-26T19:00:34.384Z,88.52
2019-03-26T19:03:02.967Z,88.97
2019-03-26T19:05:31.179Z,89.61
2019-03-26T19:08:00.299Z,89.48
2019-03-26T19:10:33.943Z,89.66
2019-03-26T19:13:02.290Z,89.63
2019-03-26T19:15:30.539Z,89.11
2019-03-26T19:17:58.807Z,88.79
2019-03-26T19:20:27.069Z,88.93
2019-03-26T19:22:55.356Z,88.98
2019-03-26T19:25:23.610Z,88.72
2019-03-26T19:27:51.881Z,88.78
2019-03-26T19:30:20.130Z,89.17
2019-03-26T19:32:49.075Z,89.22
2019-03-26T19:35:17.894Z,89.29
2019-03-26T19:37:46.165Z,89.06
2019-03-26T19:40:14.417Z,88.77
2019-03-26T19:42:42.692Z,89.21
2019-03-26T19:45:11.718Z,89.26
2019-03-26T19:47:40.558Z,89.89
2019-03-26T19:50:08.810Z,89.93
2019-03-26T19:52:37.081Z,89.87
2019-03-26T19:55:07.071Z,89.89
2019-03-26T19:57:35.321Z,90.11
2019-03-26T20:00:04.666Z,90.23
2019-03-26T20:02:32.911Z,90.34
2019-03-26T20:05:01.453Z,90.83
2019-03-26T20:07:29.700Z,90.84
2019-03-26T20:09:57.976Z,90.43
2019-03-26T20:12:26.225Z,90.27
2019-03-26T20:14:54.500Z,91.11
2019-03-26T20:17:22.750Z,90.77
2019-03-26T20:19:52.469Z,90.88
2019-03-26T20:22:20.710Z,90.44
2019-03-26T20:24:48.985Z,90.87
2019-03-26T20:27:17.234Z,90.92
2019-03-26T20:29:45.508Z,90.38
2019-03-26T20:32:13.764Z,90.51
2019-03-26T20:34:42.044Z,90.04
2019-03-26T20:37:10.284Z,90.28
2019-03-26T20:39:38.566Z,90.50
2019-03-26T20:42:07.590Z,90.62
2019-03-26T20:44:35.866Z,90.53
2019-03-26T20:47:04.115Z,90.57
2019-03-26T20:49:32.865Z,90.22
2019-03-26T20:52:01.682Z,90.43
2019-03-26T20:54:30.623Z,90.20
2019-03-26T20:56:59.147Z,89.83
2019-03-26T20:59:27.415Z,89.70
2019-03-26T21:01:56.237Z,89.54
2019-03-26T21:04:24.509Z,89.08
2019-03-26T21:06:52.762Z,89.33
2019-03-26T21:09:21.032Z,89.15
2019-03-26T21:11:49.280Z,89.08
2019-03-26T21:14:17.552Z,89.42
2019-03-26T21:16:46.373Z,88.30
2019-03-26T21:19:15.416Z,88.45
2019-03-26T21:21:43.671Z,88.79
2019-03-26T21:24:11.939Z,89.00
2019-03-26T21:26:40.190Z,89.04
2019-03-26T21:29:08.465Z,88.82
2019-03-26T21:31:36.719Z,88.73
2019-03-26T21:34:04.989Z,88.89
2019-03-26T21:36:33.236Z,88.80
2019-03-26T21:39:02.182Z,88.98
2019-03-26T21:41:30.433Z,89.00
2019-03-26T21:44:04.131Z,89.40
2019-03-26T21:46:28.700Z,89.33
2019-03-26T21:48:57.728Z,89.68
2019-03-26T21:51:26.575Z,90.03
2019-03-26T21:53:55.385Z,89.63
2019-03-26T21:56:24.228Z,90.69
2019-03-26T21:58:52.484Z,90.31
2019-03-26T22:01:21.229Z,90.22
2019-03-26T22:03:49.480Z,90.12
2019-03-26T22:06:17.757Z,90.24
2019-03-26T22:08:46.008Z,90.22
2019-03-26T22:11:14.291Z,89.75
2019-03-26T22:13:42.547Z,90.21
2019-03-26T22:16:10.824Z,90.49
2019-03-26T22:18:39.085Z,90.14
2019-03-26T22:21:07.363Z,90.69
2019-03-26T22:23:35.618Z,90.47
2019-03-26T22:26:04.667Z,90.42
2019-03-26T22:28:32.927Z,90.66
2019-03-26T22:31:01.865Z,90.56
2019-03-26T22:33:30.121Z,90.12
2019-03-26T22:35:58.397Z,90.82
2019-03-26T22:38:26.653Z,90.67
2019-03-26T22:40:54.930Z,91.25
2019-03-26T22:43:23.185Z,91.54
2019-03-26T22:45:51.468Z,91.33
2019-03-26T22:48:19.731Z,91.26
2019-03-26T22:50:48.005Z,91.09
2019-03-26T22:53:16.257Z,90.56
2019-03-26T22:55:44.538Z,90.67
2019-03-26T22:58:13.361Z,90.89
2019-03-26T23:00:42.315Z,90.92
2019-03-26T23:03:10.641Z,91.20
2019-03-26T23:05:39.686Z,91.31
2019-03-26T23:08:07.948Z,91.29
2019-03-26T23:10:36.226Z,91.54
2019-03-26T23:13:05.048Z,91.40
2019-03-26T23:15:33.898Z,91.18
2019-03-26T23:18:02.721Z,91.63
2019-03-26T23:20:31.000Z,91.26
2019-03-26T23:22:59.260Z,92.01
2019-03-26T23:25:29.677Z,92.12
2019-03-26T23:27:57.925Z,91.97
2019-03-26T23:30:26.210Z,91.71
2019-03-26T23:32:54.457Z,91.13
2019-03-26T23:35:23.301Z,91.45
2019-03-26T23:37:51.559Z,91.65
2019-03-26T23:40:19.815Z,91.45
2019-03-26T23:42:48.097Z,91.26
2019-03-26T23:45:16.353Z,91.83
2019-03-26T23:47:44.632Z,91.87
2019-03-26T23:50:12.885Z,91.97
2019-03-26T23:52:41.166Z,92.00
2019-03-26T23:55:09.894Z,92.10
2019-03-26T23:57:38.180Z,91.95
